Thunder radar more information blitzortung!


Radar de pluja more information rain snow radar


Visita la nostra xarxa de llocs de meteo:

Template documentation
and downloads

And another site



No particular awareness of the weather is required.    There are no Weather-warnings

Pagina Historial Weather Underground text

Diari Resum May 7, 2017 Unitats:  Imperial    Mètric   Tant
« Previous Dia
SegĂźent Dia »
Diari Setmana Mensual Anual Personalitzada
  Maxima: Minima: Media:
Temperatura: TemperatureC °F 10.4 °F 16.5 °F
Punt de rosada: DewpointC °F 5.3 °F 9.7 °F
Humitat: Humidity % 36 % 65 %
Wind Speed: WindSpeedKMH mph 0.0 mph 7.2 mph
RĂ fegues de vent: WindSpeedGustKMH mph - -
Vent:- - ESE
Pression baro: PressurehPa in 1016.8 in -
Precipitacions: 0.0 in    
Historical Graphs
 
 
Dades de taula per May 7, 2017
Temps Temperatura Punt de rosada Pression baro Vent Wind Speed RĂ fegues de vent Humitat Rainfall Rate (Hourly)
TemperatureC °F DewpointC °F PressurehPa in Calm     Humidity % HourlyPrecipMM in
00:01 14.8 °F 7.6 °F 1019.9 in ENE 5.8 mph 5.8 mph 62 % 0.0 in
00:05 11.4 °F 5.9 °F 1019.9 in ENE 1.6 mph 3.2 mph 69 % 0.0 in
00:06 14.7 °F 7.5 °F 1019.9 in NNE 7.4 mph 7.4 mph 62 % 0.0 in
00:15 11.1 °F 5.8 °F 1019.9 in Calm   1.6 mph 70 % 0.0 in
00:25 11.0 °F 5.7 °F 1019.9 in Calm     70 % 0.0 in
00:35 10.8 °F 5.7 °F 1019.9 in WSW 1.6 mph 1.6 mph 71 % 0.0 in
00:45 10.6 °F 5.6 °F 1019.9 in WSW 1.6 mph 3.2 mph 71 % 0.0 in
00:55 10.5 °F 5.3 °F 1019.9 in WSW 3.2 mph 3.2 mph 70 % 0.0 in
01:05 10.7 °F 5.7 °F 1019.9 in WSW 1.6 mph 3.2 mph 71 % 0.0 in
01:15 10.7 °F 6.1 °F 1019.9 in Calm   1.6 mph 73 % 0.0 in
01:25 10.6 °F 6.2 °F 1019.9 in Calm   1.6 mph 74 % 0.0 in
01:35 10.5 °F 6.1 °F 1019.9 in Calm   1.6 mph 74 % 0.0 in
01:45 10.4 °F 5.8 °F 1019.9 in North 1.6 mph 1.6 mph 73 % 0.0 in
01:55 10.5 °F 5.4 °F 1019.9 in North 1.6 mph 3.2 mph 71 % 0.0 in
02:05 10.5 °F 5.7 °F 1018.8 in Calm   4.8 mph 72 % 0.0 in
02:15 10.8 °F 5.7 °F 1018.8 in NNW 1.6 mph 3.2 mph 71 % 0.0 in
02:25 10.9 °F 6.1 °F 1018.8 in Calm   1.6 mph 72 % 0.0 in
02:35 11.1 °F 6.1 °F 1018.8 in WSW 3.2 mph 4.8 mph 71 % 0.0 in
02:45 11.0 °F 5.9 °F 1018.8 in WSW 3.2 mph 6.4 mph 71 % 0.0 in
02:55 11.2 °F 6.3 °F 1019.9 in WSW 3.2 mph 4.8 mph 72 % 0.0 in
03:05 11.4 °F 6.6 °F 1019.9 in SW 3.2 mph 4.8 mph 72 % 0.0 in
03:15 12.1 °F 7.4 °F 1019.9 in Calm   3.2 mph 73 % 0.0 in
03:25 12.4 °F 7.5 °F 1019.9 in SW 3.2 mph 3.2 mph 72 % 0.0 in
03:35 12.9 °F 8.2 °F 1020.9 in SW 1.6 mph 3.2 mph 73 % 0.0 in
03:45 13.7 °F 8.7 °F 1020.9 in Calm   3.2 mph 72 % 0.0 in
03:55 14.4 °F 9.0 °F 1019.9 in SE 3.2 mph 3.2 mph 70 % 0.0 in
04:05 14.8 °F 8.9 °F 1020.9 in East 1.6 mph 4.8 mph 68 % 0.0 in
04:15 14.8 °F 8.5 °F 1020.9 in NE 4.8 mph 4.8 mph 66 % 0.0 in
04:25 15.6 °F 9.1 °F 1020.9 in NE 4.8 mph 6.4 mph 65 % 0.0 in
04:35 15.6 °F 8.8 °F 1020.9 in NE 3.2 mph 6.4 mph 64 % 0.0 in
04:45 16.3 °F 9.2 °F 1020.9 in NE 4.8 mph 4.8 mph 63 % 0.0 in
04:55 16.7 °F 9.4 °F 1020.9 in NW 3.2 mph 4.8 mph 62 % 0.0 in
05:05 17.9 °F 10.0 °F 1020.9 in NW 1.6 mph 4.8 mph 60 % 0.0 in
05:15 18.0 °F 9.3 °F 1020.9 in ENE 4.8 mph 6.4 mph 57 % 0.0 in
05:25 18.3 °F 9.4 °F 1020.9 in ENE 1.6 mph 4.8 mph 56 % 0.0 in
05:35 19.4 °F 10.1 °F 1019.9 in East 1.6 mph 3.2 mph 55 % 0.0 in
05:45 19.7 °F 9.6 °F 1019.9 in SSW 3.2 mph 4.8 mph 52 % 0.0 in
05:55 19.9 °F 9.7 °F 1019.9 in SSE 1.6 mph 8.0 mph 52 % 0.0 in
06:05 19.8 °F 9.4 °F 1019.9 in SE 4.8 mph 6.4 mph 51 % 0.0 in
06:15 19.6 °F 9.4 °F 1019.9 in SE 3.2 mph 6.4 mph 52 % 0.0 in
06:25 20.0 °F 9.3 °F 1019.9 in SE 1.6 mph 6.4 mph 50 % 0.0 in
06:35 20.1 °F 9.7 °F 1019.9 in East 1.6 mph 6.4 mph 51 % 0.0 in
06:45 20.0 °F 9.3 °F 1019.9 in East 4.8 mph 6.4 mph 50 % 0.0 in
06:55 20.2 °F 9.2 °F 1020.9 in ENE 1.6 mph 4.8 mph 49 % 0.0 in
07:05 20.8 °F 9.7 °F 1020.9 in ENE 3.2 mph 6.4 mph 49 % 0.0 in
07:15 20.8 °F 9.4 °F 1020.9 in East 8.0 mph 8.0 mph 48 % 0.0 in
07:25 21.3 °F 9.5 °F 1019.9 in East 8.0 mph 8.0 mph 47 % 0.0 in
07:35 21.1 °F 9.0 °F 1019.9 in ESE 8.0 mph 8.0 mph 46 % 0.0 in
07:45 22.5 °F 9.9 °F 1019.9 in SE 3.2 mph 4.8 mph 45 % 0.0 in
07:55 21.5 °F 8.7 °F 1019.9 in East 1.6 mph 6.4 mph 44 % 0.0 in
08:05 22.1 °F 8.6 °F 1019.9 in East 4.8 mph 8.0 mph 42 % 0.0 in
08:15 22.8 °F 9.2 °F 1019.9 in SE 4.8 mph 6.4 mph 42 % 0.0 in
08:25 23.3 °F 8.9 °F 1019.9 in South 3.2 mph 9.7 mph 40 % 0.0 in
08:35 22.8 °F 8.5 °F 1019.9 in ESE 4.8 mph 8.0 mph 40 % 0.0 in
08:45 23.8 °F 9.0 °F 1019.9 in ESE 3.2 mph 9.7 mph 39 % 0.0 in
08:55 24.0 °F 8.0 °F 1018.8 in SW 4.8 mph 9.7 mph 36 % 0.0 in
09:05 24.4 °F 8.8 °F 1018.8 in SSW 3.2 mph 8.0 mph 37 % 0.0 in
09:15 24.1 °F 8.5 °F 1018.8 in SSE 4.8 mph 6.4 mph 37 % 0.0 in
09:25 24.2 °F 9.4 °F 1018.8 in SE 4.8 mph 9.7 mph 39 % 0.0 in
09:35 24.9 °F 9.2 °F 1018.8 in SE 3.2 mph 6.4 mph 37 % 0.0 in
09:45 24.5 °F 9.6 °F 1018.8 in SE 4.8 mph 8.0 mph 39 % 0.0 in
09:55 24.3 °F 10.2 °F 1017.8 in SE 9.7 mph 12.9 mph 41 % 0.0 in
10:05 24.4 °F 10.3 °F 1017.8 in ESE 4.8 mph 9.7 mph 41 % 0.0 in
10:15 23.9 °F 10.2 °F 1017.8 in ESE 8.0 mph 9.7 mph 42 % 0.0 in
10:25 23.3 °F 10.3 °F 1017.8 in ESE 11.3 mph 16.1 mph 44 % 0.0 in
10:35 22.5 °F 10.6 °F 1017.8 in ESE 14.5 mph 17.7 mph 47 % 0.0 in
10:45 22.0 °F 10.5 °F 1017.8 in ESE 14.5 mph 17.7 mph 48 % 0.0 in
10:55 21.7 °F 10.8 °F 1017.8 in East 14.5 mph 24.1 mph 50 % 0.0 in
11:05 21.2 °F 10.3 °F 1017.8 in East 8.0 mph 16.1 mph 50 % 0.0 in
11:15 20.8 °F 10.9 °F 1017.8 in East 11.3 mph 20.9 mph 53 % 0.0 in
11:25 20.6 °F 10.9 °F 1017.8 in ESE 12.9 mph 14.5 mph 54 % 0.0 in
11:35 20.5 °F 11.4 °F 1017.8 in ESE 11.3 mph 16.1 mph 56 % 0.0 in
11:45 20.8 °F 11.7 °F 1017.8 in ENE 9.7 mph 12.9 mph 56 % 0.0 in
11:55 20.5 °F 11.7 °F 1017.8 in NE 14.5 mph 16.1 mph 57 % 0.0 in
12:05 20.1 °F 11.6 °F 1016.8 in ENE 9.7 mph 12.9 mph 58 % 0.0 in
12:15 19.8 °F 11.8 °F 1016.8 in East 16.1 mph 20.9 mph 60 % 0.0 in
12:25 19.7 °F 11.9 °F 1017.8 in East 14.5 mph 17.7 mph 61 % 0.0 in
12:35 19.5 °F 12.0 °F 1017.8 in East 12.9 mph 14.5 mph 62 % 0.0 in
12:45 19.4 °F 11.9 °F 1017.8 in East 12.9 mph 16.1 mph 62 % 0.0 in
17:49 19.3 °F 11.8 °F 1016.8 in East 9.3 mph 10.0 mph 62 % 0.0 in
17:55 19.2 °F 11.7 °F 1016.8 in East 12.9 mph 24.1 mph 62 % 0.0 in
18:00 19.1 °F 11.7 °F 1016.8 in ENE 13.0 mph 13.0 mph 62 % 0.0 in
18:05 19.0 °F 11.6 °F 1016.8 in SE 20.4 mph 20.4 mph 62 % 0.0 in
18:10 18.8 °F 11.8 °F 1016.8 in East 8.0 mph 17.7 mph 64 % 0.0 in
18:15 18.8 °F 11.8 °F 1017.8 in East 13.0 mph 13.0 mph 64 % 0.0 in
18:20 18.6 °F 11.7 °F 1017.8 in ENE 16.7 mph 16.7 mph 64 % 0.0 in
18:25 18.6 °F 11.7 °F 1017.8 in ESE 16.7 mph 16.7 mph 64 % 0.0 in
18:30 18.5 °F 11.8 °F 1017.8 in ESE 24.1 mph 24.1 mph 65 % 0.0 in
18:35 18.3 °F 11.6 °F 1017.8 in ESE 16.7 mph 16.7 mph 65 % 0.0 in
18:40 18.2 °F 11.4 °F 1017.8 in East 14.5 mph 24.1 mph 65 % 0.0 in
18:45 18.1 °F 11.4 °F 1017.8 in ESE 11.3 mph 20.9 mph 65 % 0.0 in
18:50 18.1 °F 11.4 °F 1017.8 in East 8.0 mph 16.1 mph 65 % 0.0 in
18:55 18.0 °F 11.3 °F 1017.8 in East 20.4 mph 20.4 mph 65 % 0.0 in
19:00 17.9 °F 11.2 °F 1017.8 in ENE 13.0 mph 13.0 mph 65 % 0.0 in
19:05 17.7 °F 11.3 °F 1017.8 in SSE 18.5 mph 18.5 mph 66 % 0.0 in
19:10 17.6 °F 11.2 °F 1017.8 in ENE 14.8 mph 14.8 mph 66 % 0.0 in
19:15 17.6 °F 11.2 °F 1017.8 in ESE 11.1 mph 11.9 mph 66 % 0.0 in
19:20 17.5 °F 11.3 °F 1017.8 in ESE 13.0 mph 13.0 mph 67 % 0.0 in
19:21 17.5 °F 11.1 °F 1017.8 in ENE 13.0 mph 13.0 mph 66 % 0.0 in
19:26 17.5 °F 11.1 °F 1017.8 in ESE 16.7 mph 16.7 mph 66 % 0.0 in
19:30 13.8 °F 9.4 °F 1019.9 in NE 3.2 mph 3.2 mph 75 % 0.0 in
19:31 17.5 °F 11.1 °F 1017.8 in ESE 9.3 mph 9.3 mph 66 % 0.0 in
19:36 17.5 °F 11.1 °F 1017.8 in ENE 9.3 mph 9.3 mph 66 % 0.0 in
19:40 13.7 °F 9.3 °F 1019.9 in NE 3.2 mph 4.8 mph 75 % 0.0 in
19:41 17.3 °F 10.9 °F 1017.8 in ESE 13.0 mph 13.0 mph 66 % 0.0 in
19:46 17.1 °F 10.9 °F 1017.8 in ESE 11.1 mph 11.1 mph 67 % 0.0 in
19:50 13.7 °F 9.6 °F 1019.9 in NE 3.2 mph 3.2 mph 76 % 0.0 in
19:51 16.9 °F 11.2 °F 1017.8 in ESE 13.0 mph 13.0 mph 69 % 0.0 in
19:53 16.9 °F 11.2 °F 1017.8 in ESE 13.0 mph 13.0 mph 69 % 0.0 in
19:58 16.8 °F 11.1 °F 1017.8 in ENE 19.5 mph 19.5 mph 69 % 0.0 in
20:00 13.7 °F 9.6 °F 1019.9 in NNE 1.6 mph 3.2 mph 76 % 0.0 in
20:03 16.8 °F 11.3 °F 1017.8 in ENE 14.8 mph 14.8 mph 70 % 0.0 in
20:08 16.7 °F 11.2 °F 1017.8 in ESE 15.8 mph 15.8 mph 70 % 0.0 in
20:10 13.7 °F 9.6 °F 1019.9 in NNE 3.2 mph 4.8 mph 76 % 0.0 in
20:13 16.5 °F 11.0 °F 1017.8 in East 20.4 mph 20.4 mph 70 % 0.0 in
20:18 16.5 °F 11.0 °F 1017.8 in ESE 14.8 mph 14.8 mph 70 % 0.0 in
20:20 13.8 °F 9.7 °F 1018.8 in NNE 3.2 mph 4.8 mph 76 % 0.0 in
20:23 16.5 °F 11.0 °F 1017.8 in ESE 11.1 mph 11.1 mph 70 % 0.0 in
20:28 16.5 °F 11.2 °F 1018.8 in East 13.0 mph 13.0 mph 71 % 0.0 in
20:30 13.7 °F 9.6 °F 1018.8 in NNE 3.2 mph 3.2 mph 76 % 0.0 in
20:33 16.4 °F 11.3 °F 1018.8 in NE 9.3 mph 9.3 mph 72 % 0.0 in
20:38 16.3 °F 11.2 °F 1018.8 in ESE 11.1 mph 11.1 mph 72 % 0.0 in
20:40 13.6 °F 9.4 °F 1019.9 in NE 1.6 mph 4.8 mph 76 % 0.0 in
20:43 16.1 °F 11.1 °F 1018.8 in East 9.3 mph 9.3 mph 72 % 0.0 in
20:48 16.0 °F 10.9 °F 1018.8 in ENE 11.1 mph 11.1 mph 72 % 0.0 in
20:50 13.5 °F 9.3 °F 1019.9 in NE 1.6 mph 1.6 mph 76 % 0.0 in
20:53 15.9 °F 11.1 °F 1018.8 in ESE 16.7 mph 16.7 mph 73 % 0.0 in
20:58 15.7 °F 11.1 °F 1018.8 in East 13.0 mph 13.0 mph 74 % 0.0 in
21:00 13.4 °F 9.3 °F 1019.9 in Calm     76 % 0.0 in
21:03 15.7 °F 11.1 °F 1018.8 in ESE 13.0 mph 13.0 mph 74 % 0.0 in
21:08 15.6 °F 11.2 °F 1018.8 in ESE 14.5 mph 14.5 mph 75 % 0.0 in
21:10 13.3 °F 9.2 °F 1019.9 in NNE 1.6 mph 1.6 mph 76 % 0.0 in
21:13 15.5 °F 11.1 °F 1018.8 in NE 9.3 mph 9.3 mph 75 % 0.0 in
21:18 15.5 °F 11.1 °F 1018.8 in ESE 14.8 mph 14.8 mph 75 % 0.0 in
21:20 13.2 °F 9.1 °F 1019.9 in Calm   1.6 mph 76 % 0.0 in
21:23 15.4 °F 11.2 °F 1018.8 in East 10.0 mph 10.0 mph 76 % 0.0 in
21:28 15.4 °F 11.0 °F 1019.9 in East 11.1 mph 11.1 mph 75 % 0.0 in
21:30 13.0 °F 8.9 °F 1019.9 in Calm     76 % 0.0 in
21:33 15.3 °F 11.1 °F 1019.9 in ESE 9.3 mph 9.3 mph 76 % 0.0 in
21:38 15.3 °F 10.9 °F 1019.9 in ENE 9.3 mph 9.3 mph 75 % 0.0 in
21:40 12.5 °F 8.4 °F 1019.9 in Calm     76 % 0.0 in
21:43 15.3 °F 10.9 °F 1019.9 in ESE 7.9 mph 7.9 mph 75 % 0.0 in
21:49 15.2 °F 10.8 °F 1019.9 in NE 11.1 mph 11.1 mph 75 % 0.0 in
21:50 12.3 °F 8.4 °F 1019.9 in WSW 3.2 mph 3.2 mph 77 % 0.0 in
21:54 15.2 °F 10.8 °F 1019.9 in ENE 9.3 mph 9.3 mph 75 % 0.0 in
21:59 15.2 °F 11.0 °F 1018.8 in ENE 7.4 mph 7.4 mph 76 % 0.0 in
22:00 12.3 °F 8.4 °F 1019.9 in WSW 1.6 mph 3.2 mph 77 % 0.0 in
22:04 15.2 °F 11.0 °F 1018.8 in ENE 7.4 mph 7.4 mph 76 % 0.0 in
22:09 15.1 °F 10.9 °F 1018.8 in NE 9.3 mph 9.3 mph 76 % 0.0 in
22:10 12.2 °F 8.5 °F 1019.9 in Calm     78 % 0.0 in
22:14 15.0 °F 10.8 °F 1019.9 in ENE 11.1 mph 11.1 mph 76 % 0.0 in
22:19 15.0 °F 10.8 °F 1019.9 in East 7.4 mph 7.4 mph 76 % 0.0 in
22:20 12.0 °F 8.3 °F 1019.9 in SW 1.6 mph 3.2 mph 78 % 0.0 in
22:24 15.0 °F 10.8 °F 1019.9 in NNE 3.9 mph 3.9 mph 76 % 0.0 in
22:29 14.9 °F 10.7 °F 1019.9 in NNE 5.6 mph 5.6 mph 76 % 0.0 in
22:30 11.8 °F 8.1 °F 1019.9 in Calm   3.2 mph 78 % 0.0 in
22:35 14.9 °F 10.7 °F 1019.9 in ESE 7.4 mph 7.4 mph 76 % 0.0 in
22:40 14.8 °F 10.6 °F 1019.9 in East 5.6 mph 5.6 mph 76 % 0.0 in
22:45 14.7 °F 10.5 °F 1019.9 in ENE 5.8 mph 5.8 mph 76 % 0.0 in
22:50 14.6 °F 10.4 °F 1019.9 in NNE 7.4 mph 7.4 mph 76 % 0.0 in
22:55 14.5 °F 10.3 °F 1019.9 in NNE 5.6 mph 6.1 mph 76 % 0.0 in
23:00 14.5 °F 10.3 °F 1019.9 in ENE 5.6 mph 5.6 mph 76 % 0.0 in
23:05 14.4 °F 10.2 °F 1019.9 in NNE 7.4 mph 7.4 mph 76 % 0.0 in
23:10 14.3 °F 10.1 °F 1019.9 in NE 3.2 mph 8.0 mph 76 % 0.0 in
23:15 14.3 °F 10.1 °F 1019.9 in NE 7.4 mph 7.4 mph 76 % 0.0 in
23:20 14.2 °F 9.8 °F 1019.9 in NNE 5.6 mph 5.6 mph 75 % 0.0 in
23:25 14.1 °F 9.7 °F 1019.9 in NNE 7.4 mph 7.4 mph 75 % 0.0 in
23:30 14.1 °F 9.7 °F 1019.9 in NNE 5.6 mph 5.6 mph 75 % 0.0 in
23:35 14.1 °F 9.7 °F 1019.9 in NNE 5.6 mph 5.6 mph 75 % 0.0 in
23:40 14.1 °F 9.7 °F 1019.9 in NE 5.6 mph 5.6 mph 75 % 0.0 in
23:45 14.0 °F 9.6 °F 1019.9 in NE 7.4 mph 7.4 mph 75 % 0.0 in
23:50 14.0 °F 9.6 °F 1019.9 in NNE 6.4 mph 6.4 mph 75 % 0.0 in
23:55 14.0 °F 9.6 °F 1019.9 in ENE 5.6 mph 5.6 mph 75 % 0.0 in
Meteo Sesrovires
Elogis d' Weather Underground - 1.5 mb

Guio original per  Jim McMurry - jmcmurry@mwt.net Adaptat per a la plantilla per  Wim van der Kuil - Leuven-Template.eu

Trobareu la nostra informacio del temps tambe a:

Weather Underground

AWEKAS